createdAt,value
2024-05-09T00:00:29.579Z,50.77
2024-05-09T00:01:19.810Z,50.83
2024-05-09T00:02:18.794Z,50.74
2024-05-09T00:03:18.801Z,50.90
2024-05-09T00:04:18.934Z,50.91
2024-05-09T00:05:18.967Z,50.57
2024-05-09T00:06:18.857Z,50.91
2024-05-09T00:07:18.919Z,51.51
2024-05-09T00:08:19.037Z,50.28
2024-05-09T00:09:18.926Z,50.39
2024-05-09T00:10:25.546Z,49.96
2024-05-09T00:11:20.072Z,50.05
2024-05-09T00:12:19.160Z,50.27
2024-05-09T00:13:19.062Z,50.62
2024-05-09T00:14:19.175Z,50.75
2024-05-09T00:15:19.120Z,51.43
2024-05-09T00:16:19.131Z,51.26
2024-05-09T00:17:19.307Z,50.94
2024-05-09T00:18:19.337Z,50.75
2024-05-09T00:19:19.375Z,50.55
2024-05-09T00:20:24.498Z,50.70
2024-05-09T00:21:20.365Z,50.79
2024-05-09T00:22:19.374Z,50.76
2024-05-09T00:23:19.758Z,50.83
2024-05-09T00:24:19.420Z,51.13
2024-05-09T00:25:19.451Z,50.77
2024-05-09T00:26:19.598Z,50.55
2024-05-09T00:27:19.508Z,50.13
2024-05-09T00:28:19.531Z,50.92
2024-05-09T00:29:19.650Z,51.57
2024-05-09T00:30:27.801Z,51.30
2024-05-09T00:31:20.786Z,51.35
2024-05-09T00:32:19.906Z,51.50
2024-05-09T00:33:19.962Z,51.18
2024-05-09T00:34:19.854Z,51.46
2024-05-09T00:35:19.915Z,51.19
2024-05-09T00:36:19.881Z,51.58
2024-05-09T00:37:19.884Z,51.24
2024-05-09T00:38:19.938Z,50.71
2024-05-09T00:39:19.942Z,50.38
2024-05-09T00:40:27.264Z,50.64
2024-05-09T00:41:21.154Z,50.73
2024-05-09T00:42:20.084Z,50.71
2024-05-09T00:43:20.095Z,50.85
2024-05-09T00:44:20.171Z,50.42
2024-05-09T00:45:20.151Z,50.35
2024-05-09T00:46:20.195Z,51.07
2024-05-09T00:47:20.363Z,50.41
2024-05-09T00:48:21.581Z,50.72
2024-05-09T00:49:20.433Z,49.38
2024-05-09T00:50:29.370Z,50.59
2024-05-09T00:51:21.378Z,50.66
2024-05-09T00:52:20.363Z,50.77
2024-05-09T00:53:20.431Z,50.80
2024-05-09T00:54:20.421Z,51.38
2024-05-09T00:55:20.436Z,50.97
2024-05-09T00:56:20.575Z,51.32
2024-05-09T00:57:20.540Z,50.34
2024-05-09T00:58:20.547Z,50.80
2024-05-09T00:59:20.605Z,51.13
2024-05-09T01:00:26.949Z,51.58
2024-05-09T01:01:21.793Z,51.63
2024-05-09T01:02:20.800Z,51.69
2024-05-09T01:03:21.197Z,51.73
2024-05-09T01:04:20.941Z,51.60
2024-05-09T01:05:20.927Z,50.72
2024-05-09T01:06:20.881Z,51.19
2024-05-09T01:07:20.911Z,50.76
2024-05-09T01:08:21.274Z,50.80
2024-05-09T01:09:20.971Z,50.28
2024-05-09T01:10:27.527Z,50.87
2024-05-09T01:11:22.068Z,50.92
2024-05-09T01:12:21.192Z,50.94
2024-05-09T01:13:21.089Z,50.99
2024-05-09T01:14:21.162Z,51.26
2024-05-09T01:15:21.114Z,51.04
2024-05-09T01:16:21.150Z,50.65
2024-05-09T01:17:21.262Z,50.77
2024-05-09T01:18:21.319Z,50.18
2024-05-09T01:19:21.518Z,51.63
2024-05-09T01:21:21.433Z,50.11
2024-05-09T01:22:21.513Z,51.26
2024-05-09T01:23:21.621Z,50.21
2024-05-09T01:24:21.609Z,50.84
2024-05-09T01:25:21.700Z,50.99
2024-05-09T01:26:21.805Z,51.10
2024-05-09T01:27:21.832Z,51.19
2024-05-09T01:28:21.912Z,51.13
2024-05-09T01:29:22.057Z,50.44
2024-05-09T01:30:31.209Z,50.49
2024-05-09T01:31:23.199Z,50.56
2024-05-09T01:32:22.478Z,50.77
2024-05-09T01:33:22.370Z,50.57
2024-05-09T01:34:22.338Z,50.96
2024-05-09T01:35:22.379Z,51.06
2024-05-09T01:36:22.342Z,50.27
2024-05-09T01:37:22.403Z,50.95
2024-05-09T01:38:22.484Z,50.85
2024-05-09T01:39:22.422Z,50.57
2024-05-09T01:40:29.189Z,50.17
2024-05-09T01:41:23.562Z,50.23
2024-05-09T01:42:22.533Z,50.49
2024-05-09T01:43:22.578Z,50.83
2024-05-09T01:44:22.733Z,51.29
2024-05-09T01:45:22.651Z,51.12
2024-05-09T01:46:22.648Z,51.02
2024-05-09T01:47:22.953Z,51.23
2024-05-09T01:48:22.889Z,50.96
2024-05-09T01:49:22.837Z,51.39
2024-05-09T01:50:34.145Z,50.44
2024-05-09T01:51:23.829Z,50.51
2024-05-09T01:52:22.807Z,50.76
2024-05-09T01:53:22.901Z,50.73
2024-05-09T01:54:22.843Z,51.21
2024-05-09T01:55:22.891Z,49.58
2024-05-09T01:56:23.010Z,51.29
2024-05-09T01:57:22.936Z,50.87
2024-05-09T01:58:22.985Z,50.96
2024-05-09T01:59:23.163Z,50.76
2024-05-09T02:00:40.018Z,50.00
2024-05-09T02:01:55.622Z,50.00
2024-05-09T02:02:35.924Z,50.00
2024-05-09T02:03:35.053Z,50.00
2024-05-09T02:04:35.025Z,50.00
2024-05-09T02:05:35.055Z,50.00
2024-05-09T02:06:34.952Z,50.00
2024-05-09T02:07:34.994Z,50.52
2024-05-09T02:08:35.103Z,50.65
2024-05-09T02:09:35.005Z,50.00
2024-05-09T02:10:35.021Z,51.04
2024-05-09T02:11:35.133Z,51.38
2024-05-09T02:12:35.143Z,51.47
2024-05-09T02:13:35.136Z,50.57
2024-05-09T02:14:35.127Z,50.44
2024-05-09T02:15:35.140Z,52.30
2024-05-09T02:16:35.154Z,52.68
2024-05-09T02:17:35.348Z,52.88
2024-05-09T02:18:35.252Z,52.01
2024-05-09T02:19:35.332Z,52.11
2024-05-09T02:20:36.712Z,50.68
2024-05-09T02:21:35.890Z,52.13
2024-05-09T02:22:35.438Z,51.60
2024-05-09T02:23:35.575Z,51.99
2024-05-09T02:24:35.609Z,50.86
2024-05-09T02:25:35.736Z,51.92
2024-05-09T02:26:35.817Z,50.57
2024-05-09T02:27:35.881Z,50.59
2024-05-09T02:28:35.961Z,52.27
2024-05-09T02:29:36.106Z,51.55
2024-05-09T02:30:40.455Z,51.60
2024-05-09T02:31:37.172Z,51.70
2024-05-09T02:32:36.320Z,52.34
2024-05-09T02:33:36.488Z,52.04
2024-05-09T02:34:36.265Z,52.90
2024-05-09T02:35:36.307Z,53.91
2024-05-09T02:36:36.308Z,50.47
2024-05-09T02:37:36.312Z,52.61
2024-05-09T02:38:36.392Z,51.98
2024-05-09T02:39:36.341Z,51.75
2024-05-09T02:40:38.787Z,51.43
2024-05-09T02:41:36.524Z,54.35
2024-05-09T02:42:36.514Z,52.94
2024-05-09T02:43:36.520Z,50.22
2024-05-09T02:44:36.595Z,52.73
2024-05-09T02:45:36.574Z,52.62
2024-05-09T02:46:36.579Z,52.93
2024-05-09T02:47:36.962Z,52.12
2024-05-09T02:48:36.742Z,52.08
2024-05-09T02:49:36.800Z,51.97
2024-05-09T02:50:39.358Z,51.92
2024-05-09T02:51:36.719Z,52.09
2024-05-09T02:52:36.715Z,52.46
2024-05-09T02:53:36.910Z,52.78
2024-05-09T02:54:36.765Z,51.55
2024-05-09T02:55:36.816Z,49.86
2024-05-09T02:56:36.944Z,52.06
2024-05-09T02:57:36.860Z,52.01
2024-05-09T02:58:36.866Z,52.58
2024-05-09T02:59:36.913Z,52.22
2024-05-09T03:00:40.399Z,52.05
2024-05-09T03:01:38.065Z,52.35
2024-05-09T03:02:37.096Z,52.81
2024-05-09T03:03:37.242Z,52.55
2024-05-09T03:04:37.139Z,52.89
2024-05-09T03:05:37.375Z,52.20
2024-05-09T03:06:37.110Z,52.96
2024-05-09T03:07:37.138Z,50.00
2024-05-09T03:08:37.248Z,52.01
2024-05-09T03:09:37.182Z,54.45
2024-05-09T03:10:38.858Z,53.53
2024-05-09T03:11:37.422Z,53.47
2024-05-09T03:12:39.334Z,53.32
2024-05-09T03:13:37.521Z,52.62
2024-05-09T03:14:37.618Z,50.30
2024-05-09T03:15:37.690Z,51.22
2024-05-09T03:16:37.757Z,51.44
2024-05-09T03:17:37.949Z,51.31
2024-05-09T03:18:38.004Z,52.72
2024-05-09T03:19:38.039Z,53.97
2024-05-09T03:20:38.555Z,53.30
2024-05-09T03:21:38.193Z,52.86
2024-05-09T03:22:38.281Z,50.94
2024-05-09T03:23:38.514Z,51.75
2024-05-09T03:24:38.436Z,54.05
2024-05-09T03:25:38.669Z,52.88
2024-05-09T03:26:38.667Z,55.50
2024-05-09T03:27:38.668Z,51.59
2024-05-09T03:28:38.768Z,51.68
2024-05-09T03:29:38.920Z,53.38
2024-05-09T03:30:42.285Z,51.98
2024-05-09T03:31:39.011Z,52.17
2024-05-09T03:32:39.141Z,52.02
2024-05-09T03:33:39.156Z,52.06
2024-05-09T03:34:39.014Z,52.74
2024-05-09T03:35:39.099Z,52.39
2024-05-09T03:36:39.080Z,52.97
2024-05-09T03:37:39.098Z,51.68
2024-05-09T03:38:39.162Z,51.81
2024-05-09T03:39:39.150Z,52.78
2024-05-09T03:40:39.173Z,51.46
2024-05-09T03:41:39.238Z,52.39
2024-05-09T03:42:39.223Z,51.59
2024-05-09T03:43:39.246Z,52.24
2024-05-09T03:44:39.360Z,51.85
2024-05-09T03:45:39.273Z,53.33
2024-05-09T03:46:39.306Z,50.88
2024-05-09T03:47:39.483Z,50.49
2024-05-09T03:48:39.393Z,52.19
2024-05-09T03:49:39.389Z,51.55
2024-05-09T03:50:39.494Z,52.85
2024-05-09T03:51:39.521Z,50.81
2024-05-09T03:52:39.586Z,52.54
2024-05-09T03:53:39.832Z,51.94
2024-05-09T03:54:39.771Z,52.47
2024-05-09T03:55:39.852Z,51.14
2024-05-09T03:56:40.043Z,51.48
2024-05-09T03:57:40.099Z,52.06
2024-05-09T03:58:40.239Z,50.83
2024-05-09T03:59:40.470Z,50.96
2024-05-09T04:00:40.735Z,51.39
2024-05-09T04:01:40.766Z,53.55
2024-05-09T04:02:40.860Z,50.63
2024-05-09T04:03:41.070Z,50.97
2024-05-09T04:04:41.100Z,50.75
2024-05-09T04:05:42.494Z,50.99
2024-05-09T04:06:41.271Z,51.51
2024-05-09T04:07:41.387Z,52.57
2024-05-09T04:08:41.501Z,53.50
2024-05-09T04:09:41.604Z,52.57
2024-05-09T04:10:41.710Z,52.33
2024-05-09T04:11:41.911Z,51.52
2024-05-09T04:12:41.980Z,52.46
2024-05-09T04:13:42.112Z,53.63
2024-05-09T04:14:42.230Z,52.35
2024-05-09T04:15:42.346Z,52.72
2024-05-09T04:16:42.460Z,51.61
2024-05-09T04:17:42.784Z,52.42
2024-05-09T04:18:42.834Z,52.47
2024-05-09T04:19:42.874Z,51.56
2024-05-09T04:20:43.049Z,50.75
2024-05-09T04:21:43.112Z,52.73
2024-05-09T04:22:43.252Z,53.52
2024-05-09T04:23:43.506Z,52.17
2024-05-09T04:24:43.527Z,52.00
2024-05-09T04:25:43.816Z,52.26
2024-05-09T04:26:43.874Z,52.63
2024-05-09T04:27:43.948Z,51.76
2024-05-09T04:28:44.151Z,50.36
2024-05-09T04:29:44.183Z,52.20
2024-05-09T04:30:44.342Z,51.47
2024-05-09T04:31:44.517Z,51.57
2024-05-09T04:32:44.760Z,52.03
2024-05-09T04:33:52.371Z,50.00
2024-05-09T04:34:52.223Z,50.00
2024-05-09T04:35:52.187Z,50.00
2024-05-09T04:36:52.218Z,50.00
2024-05-09T04:37:52.267Z,50.00
2024-05-09T04:38:52.247Z,50.00
2024-05-09T04:39:52.259Z,50.35
2024-05-09T04:40:52.296Z,50.00
2024-05-09T04:41:52.330Z,52.71
2024-05-09T04:42:52.367Z,52.75
2024-05-09T04:43:52.434Z,50.07
2024-05-09T04:44:54.216Z,50.67
2024-05-09T04:45:52.443Z,50.79
2024-05-09T04:46:52.573Z,50.96
2024-05-09T04:47:52.666Z,50.70
2024-05-09T04:48:52.667Z,50.80
2024-05-09T04:49:52.588Z,49.58
2024-05-09T04:50:52.654Z,52.41
2024-05-09T04:51:52.605Z,52.39
2024-05-09T04:52:52.713Z,51.95
2024-05-09T04:53:52.752Z,51.10
2024-05-09T04:54:54.689Z,53.26
2024-05-09T04:55:52.810Z,53.37
2024-05-09T04:56:52.763Z,53.74
2024-05-09T04:57:52.773Z,53.34
2024-05-09T04:58:52.845Z,53.87
2024-05-09T04:59:52.802Z,51.81
2024-05-09T05:00:52.856Z,52.25
2024-05-09T05:01:53.001Z,50.94
2024-05-09T05:02:53.064Z,51.13
2024-05-09T05:03:53.384Z,54.28
2024-05-09T05:04:53.155Z,53.76
2024-05-09T05:05:53.068Z,53.07
2024-05-09T05:06:53.004Z,52.35
2024-05-09T05:07:53.184Z,51.34
2024-05-09T05:08:53.038Z,52.80
2024-05-09T05:09:53.085Z,54.89
2024-05-09T05:10:53.273Z,52.21
2024-05-09T05:11:53.180Z,51.83
2024-05-09T05:12:53.152Z,52.32
2024-05-09T05:13:53.205Z,53.17
2024-05-09T05:14:53.191Z,53.11
2024-05-09T05:15:53.487Z,53.16
2024-05-09T05:16:53.249Z,52.22
2024-05-09T05:17:53.421Z,52.72
2024-05-09T05:18:53.386Z,53.06
2024-05-09T05:19:53.560Z,52.97
2024-05-09T05:20:53.612Z,52.81
2024-05-09T05:21:53.719Z,53.52
2024-05-09T05:22:53.900Z,53.34
2024-05-09T05:23:53.986Z,53.32
2024-05-09T05:24:54.779Z,52.99
2024-05-09T05:25:54.838Z,50.24
2024-05-09T05:26:54.404Z,54.40
2024-05-09T05:27:54.543Z,50.54
2024-05-09T05:28:54.691Z,50.71
2024-05-09T05:29:54.822Z,51.69
2024-05-09T05:30:54.946Z,52.85
2024-05-09T05:31:55.281Z,52.49
2024-05-09T05:32:55.392Z,50.00
2024-05-09T05:33:55.414Z,53.12
2024-05-09T05:34:55.544Z,52.69
2024-05-09T05:35:55.623Z,54.55
2024-05-09T05:36:55.777Z,51.90
2024-05-09T05:37:56.024Z,50.00
2024-05-09T05:38:56.093Z,50.78
2024-05-09T05:39:56.204Z,53.45
2024-05-09T05:40:56.510Z,52.41
2024-05-09T05:41:56.425Z,51.70
2024-05-09T05:42:56.598Z,52.48
2024-05-09T05:43:56.717Z,52.71
2024-05-09T05:44:56.831Z,50.33
2024-05-09T05:45:56.998Z,53.10
2024-05-09T05:46:57.144Z,51.87
2024-05-09T05:47:57.576Z,50.74
2024-05-09T05:48:57.450Z,53.61
2024-05-09T05:49:57.628Z,53.68
2024-05-09T05:50:58.999Z,51.13
2024-05-09T05:51:57.760Z,51.94
2024-05-09T05:52:57.924Z,51.19
2024-05-09T05:53:57.951Z,52.62
2024-05-09T05:54:58.050Z,51.40
2024-05-09T05:55:58.231Z,54.08
2024-05-09T05:56:58.335Z,52.75
2024-05-09T05:57:58.498Z,52.25
2024-05-09T05:58:58.614Z,53.34
2024-05-09T05:59:58.727Z,54.35
2024-05-09T06:00:58.893Z,52.76
2024-05-09T06:01:59.040Z,54.14
2024-05-09T06:02:59.201Z,54.32
2024-05-09T06:03:59.478Z,52.59
2024-05-09T06:04:59.500Z,53.97
2024-05-09T06:05:59.664Z,53.04
2024-05-09T06:06:59.702Z,53.27
2024-05-09T06:07:59.975Z,51.32
2024-05-09T06:08:59.933Z,54.80
2024-05-09T06:10:00.147Z,53.03
2024-05-09T06:11:00.874Z,54.41
2024-05-09T06:12:01.499Z,53.42
2024-05-09T06:13:00.421Z,53.77
2024-05-09T06:14:00.532Z,52.85
2024-05-09T06:15:00.642Z,52.01
2024-05-09T06:16:00.791Z,52.24
2024-05-09T06:17:00.897Z,52.07
2024-05-09T06:18:01.461Z,51.45
2024-05-09T06:19:01.242Z,51.47
2024-05-09T06:20:01.308Z,52.34
2024-05-09T06:21:01.474Z,51.68
2024-05-09T06:22:01.543Z,50.27
2024-05-09T06:23:01.767Z,50.31
2024-05-09T06:24:04.555Z,51.72
2024-05-09T06:25:01.831Z,51.91
2024-05-09T06:26:01.885Z,52.00
2024-05-09T06:27:01.858Z,52.49
2024-05-09T06:28:01.945Z,52.14
2024-05-09T06:29:01.950Z,53.34
2024-05-09T06:30:01.916Z,52.46
2024-05-09T06:31:01.921Z,50.23
2024-05-09T06:32:02.053Z,50.33
2024-05-09T06:33:02.126Z,50.87
2024-05-09T06:34:02.118Z,52.15
2024-05-09T06:35:02.074Z,55.27
2024-05-09T06:36:02.068Z,54.00
2024-05-09T06:37:02.055Z,51.52
2024-05-09T06:38:02.452Z,52.77
2024-05-09T06:39:02.102Z,51.12
2024-05-09T06:40:02.368Z,52.14
2024-05-09T06:41:02.225Z,52.72
2024-05-09T06:42:02.248Z,52.68
2024-05-09T06:43:02.306Z,53.19
2024-05-09T06:44:02.397Z,53.35
2024-05-09T06:45:02.487Z,52.06
2024-05-09T06:46:02.576Z,52.52
2024-05-09T06:47:02.731Z,52.89
2024-05-09T06:48:03.014Z,51.49
2024-05-09T06:49:02.967Z,51.64
2024-05-09T06:50:04.870Z,50.00
2024-05-09T06:51:03.161Z,54.34
2024-05-09T06:52:03.227Z,52.11
2024-05-09T06:53:03.377Z,54.16
2024-05-09T06:54:03.416Z,51.37
2024-05-09T06:55:03.488Z,53.23
2024-05-09T06:56:03.581Z,51.24
2024-05-09T06:57:03.660Z,54.52
2024-05-09T06:58:03.744Z,50.33
2024-05-09T06:59:03.984Z,50.70
2024-05-09T07:00:05.033Z,51.85
2024-05-09T07:01:04.065Z,51.94
2024-05-09T07:02:04.124Z,52.09
2024-05-09T07:03:05.949Z,52.19
2024-05-09T07:04:04.266Z,53.98
2024-05-09T07:05:04.359Z,53.15
2024-05-09T07:06:04.366Z,52.94
2024-05-09T07:07:04.138Z,52.43
2024-05-09T07:08:04.305Z,55.05
2024-05-09T07:09:04.240Z,50.22
2024-05-09T07:10:06.266Z,52.00
2024-05-09T07:11:04.512Z,52.74
2024-05-09T07:12:04.521Z,51.94
2024-05-09T07:13:04.355Z,52.06
2024-05-09T07:14:04.419Z,51.27
2024-05-09T07:15:04.401Z,53.76
2024-05-09T07:16:04.411Z,53.73
2024-05-09T07:17:04.594Z,54.07
2024-05-09T07:18:04.569Z,54.11
2024-05-09T07:19:04.901Z,51.36
2024-05-09T07:21:01.218Z,50.00
2024-05-09T07:22:01.121Z,50.00
2024-05-09T07:23:01.194Z,50.00
2024-05-09T07:24:01.109Z,50.00
2024-05-09T07:25:01.115Z,50.00
2024-05-09T07:26:01.126Z,50.00
2024-05-09T07:27:01.089Z,50.00
2024-05-09T07:28:01.098Z,51.39
2024-05-09T07:29:01.125Z,50.00
2024-05-09T07:30:01.063Z,50.70
2024-05-09T07:31:01.028Z,51.21
2024-05-09T07:32:01.152Z,51.02
2024-05-09T07:33:01.663Z,52.81
2024-05-09T07:34:01.048Z,50.08
2024-05-09T07:35:01.027Z,52.89
2024-05-09T07:36:01.001Z,51.94
2024-05-09T07:37:01.010Z,51.23
2024-05-09T07:38:01.038Z,50.63
2024-05-09T07:39:00.959Z,51.69
2024-05-09T07:40:00.962Z,51.77
2024-05-09T07:41:01.053Z,52.19
2024-05-09T07:42:00.951Z,52.92
2024-05-09T07:43:00.958Z,51.38
2024-05-09T07:44:00.952Z,52.16
2024-05-09T07:45:20.606Z,52.08
2024-05-09T07:46:51.625Z,52.26
2024-05-09T07:53:25.369Z,52.88
2024-05-09T07:53:36.104Z,52.95
2024-05-09T07:54:02.387Z,52.86
2024-05-09T07:55:01.026Z,52.88
2024-05-09T07:56:00.972Z,54.83
2024-05-09T07:57:00.993Z,56.80
2024-05-09T07:58:00.860Z,58.82
2024-05-09T07:59:00.794Z,60.19
2024-05-09T08:00:00.810Z,60.08
2024-05-09T08:01:00.985Z,56.98
2024-05-09T08:02:00.980Z,56.30
2024-05-09T08:03:00.844Z,56.54
2024-05-09T08:04:00.931Z,55.34
2024-05-09T08:05:01.133Z,54.77
2024-05-09T08:06:01.060Z,53.97
2024-05-09T08:07:01.196Z,53.79
2024-05-09T08:08:01.253Z,52.48
2024-05-09T08:09:05.489Z,52.56
2024-05-09T08:10:02.746Z,52.73
2024-05-09T08:11:01.352Z,52.97
2024-05-09T08:12:01.333Z,53.42
2024-05-09T08:13:01.456Z,54.39
2024-05-09T08:14:01.329Z,52.58
2024-05-09T08:15:01.382Z,50.00
2024-05-09T08:16:01.579Z,52.97
2024-05-09T08:17:01.658Z,52.37
2024-05-09T08:18:01.994Z,52.17
2024-05-09T08:19:01.924Z,51.15
2024-05-09T08:20:04.409Z,51.45
2024-05-09T08:21:01.901Z,53.53
2024-05-09T08:22:01.932Z,51.78
2024-05-09T08:23:01.903Z,50.20
2024-05-09T08:24:01.894Z,51.66
2024-05-09T08:25:01.908Z,49.12
2024-05-09T08:26:01.841Z,51.64
2024-05-09T08:27:01.826Z,52.96
2024-05-09T08:28:01.888Z,53.77
2024-05-09T08:29:01.855Z,52.85
2024-05-09T08:30:01.848Z,54.05
2024-05-09T08:31:05.022Z,52.34
2024-05-09T08:32:01.992Z,52.59
2024-05-09T08:33:01.881Z,53.24
2024-05-09T08:34:02.073Z,53.58
2024-05-09T08:35:01.841Z,53.59
2024-05-09T08:36:01.747Z,52.34
2024-05-09T08:37:10.023Z,52.40
2024-05-09T08:38:03.051Z,52.55
2024-05-09T08:39:01.719Z,52.82
2024-05-09T08:40:01.741Z,52.95
2024-05-09T08:41:01.709Z,53.33
2024-05-09T08:42:01.694Z,53.46
2024-05-09T08:43:01.732Z,52.88
2024-05-09T08:44:01.737Z,53.81
2024-05-09T08:45:01.823Z,53.25
2024-05-09T08:46:01.914Z,51.17
2024-05-09T08:47:02.073Z,50.93
2024-05-09T08:48:02.166Z,52.79
2024-05-09T08:49:02.447Z,52.11
2024-05-09T08:50:02.318Z,53.64
2024-05-09T08:51:02.319Z,51.65
2024-05-09T08:52:02.453Z,52.52
2024-05-09T08:53:02.567Z,53.10
2024-05-09T08:54:02.609Z,52.51
2024-05-09T08:55:02.721Z,52.48
2024-05-09T08:56:02.789Z,51.94
2024-05-09T08:57:02.897Z,53.97
2024-05-09T08:58:03.016Z,53.91
2024-05-09T08:59:03.066Z,52.31
2024-05-09T09:00:04.756Z,52.12
2024-05-09T09:01:03.332Z,50.64
2024-05-09T09:02:03.247Z,52.51
2024-05-09T09:03:03.219Z,52.59
2024-05-09T09:04:03.333Z,52.00
2024-05-09T09:05:03.447Z,52.86
2024-05-09T09:06:03.442Z,50.81
2024-05-09T09:07:03.799Z,52.89
2024-05-09T09:08:03.620Z,53.01
2024-05-09T09:09:03.683Z,54.82
2024-05-09T09:10:05.525Z,54.85
2024-05-09T09:11:03.768Z,53.36
2024-05-09T09:12:03.797Z,52.72
2024-05-09T09:13:03.865Z,51.62
2024-05-09T09:14:03.764Z,52.55
2024-05-09T09:15:03.777Z,54.18
2024-05-09T09:16:04.160Z,53.76
2024-05-09T09:17:03.933Z,53.88
2024-05-09T09:18:04.093Z,54.09
2024-05-09T09:19:04.368Z,53.71
2024-05-09T09:20:05.331Z,54.35
2024-05-09T09:21:04.419Z,53.41
2024-05-09T09:22:04.477Z,54.17
2024-05-09T09:23:04.817Z,52.51
2024-05-09T09:24:05.029Z,54.90
2024-05-09T09:25:04.591Z,52.15
2024-05-09T09:26:04.460Z,54.72
2024-05-09T09:27:04.555Z,53.88
2024-05-09T09:28:04.683Z,52.09
2024-05-09T09:29:04.746Z,52.27
2024-05-09T09:30:07.007Z,52.46
2024-05-09T09:31:05.931Z,52.62
2024-05-09T09:32:04.847Z,52.96
2024-05-09T09:33:05.148Z,53.86
2024-05-09T09:34:05.044Z,54.37
2024-05-09T09:35:04.910Z,54.09
2024-05-09T09:36:06.268Z,53.27
2024-05-09T09:37:05.091Z,54.90
2024-05-09T09:38:05.014Z,53.03
2024-05-09T09:39:05.787Z,51.97
2024-05-09T09:40:06.931Z,51.01
2024-05-09T09:41:05.065Z,52.57
2024-05-09T09:42:05.020Z,52.34
2024-05-09T09:43:05.077Z,50.54
2024-05-09T09:44:05.013Z,52.47
2024-05-09T09:45:05.906Z,52.82
2024-05-09T09:46:06.292Z,52.41
2024-05-09T09:47:05.188Z,53.59
2024-05-09T09:48:05.267Z,51.56
2024-05-09T09:49:05.360Z,51.56
2024-05-09T09:50:09.447Z,51.65
2024-05-09T09:51:06.330Z,51.83
2024-05-09T09:52:07.124Z,52.28
2024-05-09T09:53:05.341Z,52.92
2024-05-09T09:54:05.331Z,53.68
2024-05-09T09:55:05.378Z,54.12
2024-05-09T09:56:05.337Z,55.91
2024-05-09T09:57:05.340Z,53.02
2024-05-09T09:58:07.006Z,51.93
2024-05-09T09:59:05.345Z,53.60
2024-05-09T10:00:09.538Z,51.68
2024-05-09T10:01:06.451Z,52.02
2024-05-09T10:02:05.455Z,51.81
2024-05-09T10:03:05.448Z,52.51
2024-05-09T10:04:05.433Z,53.03
2024-05-09T10:05:05.420Z,53.47
2024-05-09T10:06:05.346Z,53.71
2024-05-09T10:07:05.372Z,53.23
2024-05-09T10:08:05.346Z,53.85
2024-05-09T10:09:05.374Z,55.02
2024-05-09T10:10:06.954Z,52.70
2024-05-09T10:11:05.568Z,51.77
2024-05-09T10:12:06.390Z,52.36
2024-05-09T10:13:05.707Z,51.79
2024-05-09T10:14:05.498Z,50.40
2024-05-09T10:15:05.549Z,51.21
2024-05-09T10:16:05.615Z,52.52
2024-05-09T10:17:05.748Z,50.19
2024-05-09T10:18:06.007Z,51.39
2024-05-09T10:19:05.933Z,53.03
2024-05-09T10:20:11.674Z,51.89
2024-05-09T10:21:06.949Z,52.09
2024-05-09T10:22:06.048Z,52.50
2024-05-09T10:23:05.948Z,53.07
2024-05-09T10:24:05.957Z,52.54
2024-05-09T10:25:06.080Z,52.01
2024-05-09T10:26:06.398Z,52.62
2024-05-09T10:27:05.978Z,50.96
2024-05-09T10:28:06.007Z,52.04
2024-05-09T10:29:05.913Z,52.75
2024-05-09T10:30:11.461Z,53.49
2024-05-09T10:31:06.985Z,53.58
2024-05-09T10:32:05.906Z,53.64
2024-05-09T10:33:05.987Z,53.86
2024-05-09T10:34:06.011Z,53.72
2024-05-09T10:35:05.887Z,52.04
2024-05-09T10:36:05.856Z,52.45
2024-05-09T10:37:05.910Z,54.47
2024-05-09T10:38:05.856Z,53.21
2024-05-09T10:39:05.837Z,52.82
2024-05-09T10:40:11.930Z,51.78
2024-05-09T10:41:06.941Z,51.93
2024-05-09T10:42:05.915Z,52.42
2024-05-09T10:43:06.580Z,52.33
2024-05-09T10:44:05.913Z,52.10
2024-05-09T10:45:05.923Z,51.92
2024-05-09T10:46:05.942Z,52.10
2024-05-09T10:47:05.957Z,51.71
2024-05-09T10:48:06.179Z,53.06
2024-05-09T10:49:07.898Z,51.90
2024-05-09T10:50:12.540Z,52.21
2024-05-09T10:51:06.851Z,52.35
2024-05-09T10:52:05.892Z,52.78
2024-05-09T10:53:05.852Z,53.18
2024-05-09T10:54:05.850Z,52.19
2024-05-09T10:55:06.126Z,52.85
2024-05-09T10:56:05.903Z,50.00
2024-05-09T10:57:05.846Z,53.19
2024-05-09T10:58:05.888Z,52.61
2024-05-09T10:59:05.880Z,52.07
2024-05-09T11:00:07.928Z,52.78
2024-05-09T11:01:07.562Z,52.90
2024-05-09T11:02:05.957Z,53.61
2024-05-09T11:03:05.863Z,53.52
2024-05-09T11:04:05.989Z,53.72
2024-05-09T11:05:06.148Z,55.06
2024-05-09T11:06:05.811Z,50.86
2024-05-09T11:07:05.862Z,52.09
2024-05-09T11:08:05.740Z,54.88
2024-05-09T11:09:05.721Z,52.79
2024-05-09T11:10:07.534Z,51.25
2024-05-09T11:11:05.720Z,51.38
2024-05-09T11:12:05.730Z,51.73
2024-05-09T11:13:05.732Z,53.21
2024-05-09T11:14:05.668Z,51.48
2024-05-09T11:15:05.680Z,49.53
2024-05-09T11:16:05.895Z,54.40
2024-05-09T11:17:05.823Z,52.54
2024-05-09T11:18:05.727Z,52.21
2024-05-09T11:19:05.787Z,52.07
2024-05-09T11:20:13.393Z,52.41
2024-05-09T11:21:06.649Z,52.60
2024-05-09T11:22:05.648Z,53.23
2024-05-09T11:23:05.610Z,52.30
2024-05-09T11:24:07.294Z,53.26
2024-05-09T11:25:05.637Z,52.62
2024-05-09T11:26:05.604Z,53.06
2024-05-09T11:27:05.586Z,53.21
2024-05-09T11:28:05.660Z,53.32
2024-05-09T11:29:05.586Z,55.20
2024-05-09T11:30:07.332Z,54.32
2024-05-09T11:31:06.639Z,54.55
2024-05-09T11:32:05.618Z,54.66
2024-05-09T11:33:05.608Z,55.33
2024-05-09T11:34:05.575Z,54.76
2024-05-09T11:35:05.556Z,56.40
2024-05-09T11:36:05.563Z,54.08
2024-05-09T11:37:05.606Z,54.15
2024-05-09T11:38:05.541Z,54.13
2024-05-09T11:39:05.568Z,51.87
2024-05-09T11:40:11.429Z,52.62
2024-05-09T11:41:06.606Z,52.76
2024-05-09T11:42:05.608Z,52.97
2024-05-09T11:43:05.852Z,53.40
2024-05-09T11:44:05.564Z,54.36
2024-05-09T11:45:05.579Z,54.09
2024-05-09T11:46:05.802Z,52.88
2024-05-09T11:47:05.607Z,52.18
2024-05-09T11:48:05.675Z,53.40
2024-05-09T11:49:05.776Z,50.89
2024-05-09T11:50:07.988Z,51.62
2024-05-09T11:51:05.520Z,51.79
2024-05-09T11:52:05.553Z,51.95
2024-05-09T11:53:05.544Z,52.76
2024-05-09T11:54:05.502Z,53.70
2024-05-09T11:55:05.583Z,54.46
2024-05-09T11:56:05.502Z,52.76
2024-05-09T11:57:05.501Z,53.46
2024-05-09T11:58:05.492Z,52.34
2024-05-09T11:59:05.493Z,53.18
2024-05-09T12:00:07.285Z,52.57
2024-05-09T12:01:05.648Z,52.70
2024-05-09T12:02:05.552Z,53.03
2024-05-09T12:03:06.011Z,53.15
2024-05-09T12:04:05.750Z,53.70
2024-05-09T12:05:05.554Z,51.77
2024-05-09T12:06:05.651Z,53.45
2024-05-09T12:07:05.467Z,53.52
2024-05-09T12:08:05.444Z,50.78
2024-05-09T12:09:05.410Z,53.64
2024-05-09T12:10:09.423Z,52.29
2024-05-09T12:11:06.512Z,52.52
2024-05-09T12:12:05.381Z,52.93
2024-05-09T12:13:06.903Z,53.98
2024-05-09T12:14:05.361Z,54.05
2024-05-09T12:15:05.370Z,54.58
2024-05-09T12:16:05.452Z,55.52
2024-05-09T12:17:05.401Z,52.66
2024-05-09T12:18:05.607Z,51.04
2024-05-09T12:19:05.440Z,51.88
2024-05-09T12:20:09.042Z,50.88
2024-05-09T12:21:06.321Z,51.06
2024-05-09T12:22:05.371Z,51.23
2024-05-09T12:23:05.341Z,52.02
2024-05-09T12:24:05.341Z,52.69
2024-05-09T12:25:05.368Z,52.44
2024-05-09T12:26:05.316Z,53.37
2024-05-09T12:27:05.313Z,51.20
2024-05-09T12:28:05.442Z,52.74
2024-05-09T12:29:05.478Z,54.72
2024-05-09T12:30:07.193Z,52.89
2024-05-09T12:31:05.600Z,51.78
2024-05-09T12:32:05.623Z,53.12
2024-05-09T12:33:05.816Z,53.41
2024-05-09T12:35:03.464Z,50.00
2024-05-09T12:36:03.487Z,50.00
2024-05-09T12:37:03.581Z,50.00
2024-05-09T12:38:03.517Z,50.00
2024-05-09T12:39:03.578Z,50.00
2024-05-09T12:40:04.933Z,50.67
2024-05-09T12:41:04.654Z,50.96
2024-05-09T12:42:03.598Z,51.17
2024-05-09T12:43:03.650Z,51.34
2024-05-09T12:44:03.651Z,48.52
2024-05-09T12:45:03.674Z,47.84
2024-05-09T12:46:03.755Z,51.95
2024-05-09T12:47:03.720Z,51.43
2024-05-09T12:48:03.874Z,50.90
2024-05-09T12:49:04.080Z,50.61
2024-05-09T12:50:04.973Z,53.64
2024-05-09T12:51:04.121Z,52.29
2024-05-09T12:52:04.253Z,50.00
2024-05-09T12:53:04.979Z,53.25
2024-05-09T12:54:04.434Z,52.77
2024-05-09T12:55:04.559Z,51.58
2024-05-09T12:56:05.996Z,51.54
2024-05-09T12:57:04.682Z,51.91
2024-05-09T12:58:04.828Z,52.60
2024-05-09T12:59:04.844Z,52.71
2024-05-09T13:00:05.785Z,52.78
2024-05-09T13:01:05.096Z,54.12